Bentago Express — EHYG — position and weather

sailwx.info

Track history (hours):
 
Tides and Currents Weather Stations Pressure Air Temp Water Temp Dewpoint Dewpoint Depression Visibility Wind Speed Wind Dir Waves Ship Positions

Bentago Express

Last reported at 2018-Jun-22 01:03 UTC. Time now 2018-Jun-22 01:55 UTC.
Position N 28°03' W 014°22'.

Length 96 m; draft 3.8 m.

Type: High speed craft. MMSI: 224689000.

Date/timePositionNaut miles runAvg speedWind from/ knotsBaromVisibWave heightAir tempDewpointWater temp
2018-Jun-22 01:03N 28°03' W 014°22'0 0.0
2018-Jun-22 01:00N 28°03' W 014°22'0 0.0
2018-Jun-22 00:23N 28°03' W 014°22'0 0.0
2018-Jun-21 23:52N 28°03' W 014°22'0 0.0
2018-Jun-21 23:19N 28°03' W 014°22'0 0.0
2018-Jun-21 22:59N 28°03' W 014°22'0 0.0
2018-Jun-21 22:30N 28°03' W 014°22'0 0.0
2018-Jun-21 22:01N 28°03' W 014°22'1217.5
2018-Jun-21 21:20N 28°03' W 014°35'1029.2
2018-Jun-21 21:00N 28°04' W 014°46'1428.8
2018-Jun-21 20:30N 28°04' W 015°02'1428.9
2018-Jun-21 20:00N 28°05' W 015°18'713.6
2018-Jun-21 19:30N 28°09' W 015°25'0 0.0
2018-Jun-21 19:00N 28°09' W 015°25'0 0.0
2018-Jun-21 18:30N 28°09' W 015°25'611.3
2018-Jun-21 18:01N 28°06' W 015°20'1733.7
2018-Jun-21 17:31N 28°04' W 015°01'1733.8
2018-Jun-21 17:00N 28°03' W 014°42'1826.0
2018-Jun-21 16:20N 28°03' W 014°22'0 0.0
2018-Jun-21 15:48N 28°03' W 014°22'1027.9
2018-Jun-21 15:26N 28°02' W 014°33'1535.0
2018-Jun-21 15:00N 28°04' W 014°50'1835.1
2018-Jun-21 14:30N 28°06' W 015°10'1427.4
2018-Jun-21 14:00N 28°08' W 015°25'0 0.9
2018-Jun-21 13:31N 28°09' W 015°25'2 3.6
2018-Jun-21 13:00N 28°07' W 015°24'1735.0
2018-Jun-21 12:30N 28°05' W 015°05'1835.6
2018-Jun-21 12:00N 28°03' W 014°45'1511.8
2018-Jun-21 10:45N 28°02' W 014°28'833.6
2018-Jun-21 10:30N 28°03' W 014°37'1734.0
2018-Jun-21 10:00N 28°04' W 014°56'1734.1
2018-Jun-21 09:30N 28°06' W 015°15'918.6
2018-Jun-21 09:00N 28°09' W 015°25'0 0.0
2018-Jun-21 08:30N 28°09' W 015°25'1 2.0
2018-Jun-21 08:00N 28°08' W 015°25'1427.5
2018-Jun-21 07:31N 28°05' W 015°10'1632.5
2018-Jun-21 07:00N 28°04' W 014°52'26 5.0
2018-Jun-21 01:43N 28°03' W 014°22'0 0.0
2018-Jun-21 00:38N 28°03' W 014°22'0 0.0
2018-Jun-21 00:26N 28°03' W 014°22'0 0.0
2018-Jun-21 00:01N 28°03' W 014°22'0 0.0
2018-Jun-20 23:29N 28°03' W 014°22'0 0.0
2018-Jun-20 22:54N 28°03' W 014°22'0 0.0
2018-Jun-20 22:29N 28°03' W 014°22'0 0.0
2018-Jun-20 21:55N 28°03' W 014°22'611.5
2018-Jun-20 21:24N 28°02' W 014°28'1229.4
2018-Jun-20 21:00N 28°02' W 014°42'1429.1
2018-Jun-20 20:30N 28°04' W 014°58'1428.8
2018-Jun-20 20:00N 28°06' W 015°14'1020.8
2018-Jun-20 19:30N 28°09' W 015°25'0 0.2
2018-Jun-20 19:00N 28°09' W 015°25'0 0.0
2018-Jun-20 18:30N 28°09' W 015°25'815.0
2018-Jun-20 18:00N 28°06' W 015°17'1733.8
2018-Jun-20 17:30N 28°04' W 014°58'1733.8
2018-Jun-20 16:59N 28°02' W 014°39'1529.0
2018-Jun-20 16:28N 28°03' W 014°22'0 0.0
2018-Jun-20 16:00N 28°03' W 014°22'0 0.0
2018-Jun-20 15:30N 28°03' W 014°22'0 0.0
2018-Jun-20 14:49N 28°03' W 014°22'0 0.0
2018-Jun-20 14:26N 28°03' W 014°22'0 0.0
2018-Jun-20 13:58N 28°03' W 014°22'0 0.0
2018-Jun-20 13:31N 28°03' W 014°22'0 0.5
2018-Jun-20 12:58N 28°03' W 014°22'1226.4
2018-Jun-20 12:30N 28°02' W 014°36'1632.5
2018-Jun-20 12:00N 28°04' W 014°54'1632.6
2018-Jun-20 11:31N 28°06' W 015°12'1223.6
2018-Jun-20 11:00N 28°09' W 015°25'0 0.3
2018-Jun-20 10:31N 28°09' W 015°25'0 0.3
2018-Jun-20 10:00N 28°09' W 015°25'5 9.5
2018-Jun-20 09:31N 28°12' W 015°29'2914.7
2018-Jun-20 07:32N 28°19' W 016°01'234.7
2018-Jun-20 07:29N 28°20' W 016°03'1328.5
2018-Jun-20 07:00N 28°28' W 016°15'0 0.1
2018-Jun-20 06:30N 28°28' W 016°15'5 9.9
2018-Jun-20 06:00N 28°26' W 016°10'5 0.5
2018-Jun-19 19:30N 28°22' W 016°06'1020.7
2018-Jun-19 19:00N 28°28' W 016°15'0 0.0
2018-Jun-19 18:30N 28°28' W 016°15'1 1.2
2018-Jun-19 18:01N 28°29' W 016°14'7 2.5
2018-Jun-19 15:13N 28°25' W 016°08'729.5
2018-Jun-19 14:59N 28°29' W 016°14'1 1.2
2018-Jun-19 14:30N 28°28' W 016°15'3 6.9
2018-Jun-19 14:00N 28°26' W 016°12'8 3.3
2018-Jun-19 11:32N 28°21' W 016°04'027.0
2018-Jun-19 11:30N 28°22' W 016°05'1122.1
2018-Jun-19 11:00N 28°28' W 016°15'0 0.2
2018-Jun-19 10:31N 28°28' W 016°15'1 1.6
2018-Jun-19 10:00N 28°29' W 016°14'14 5.5
2018-Jun-19 07:30N 28°20' W 016°02'1428.5
2018-Jun-19 07:01N 28°28' W 016°15'0 0.4
2018-Jun-19 06:31N 28°28' W 016°15'15 1.4
2018-Jun-18 19:43N 28°18' W 016°02'626.2
2018-Jun-18 19:31N 28°22' W 016°06'1019.3
2018-Jun-18 19:00N 28°28' W 016°15'0 0.0
2018-Jun-18 18:30N 28°28' W 016°15'815.0
2018-Jun-18 18:00N 28°24' W 016°08'8 3.5
2018-Jun-18 15:38N 28°18' W 016°01'427.0
2018-Jun-18 15:29N 28°21' W 016°04'1224.4
2018-Jun-18 15:00N 28°29' W 016°14'1 1.0
2018-Jun-18 14:29N 28°28' W 016°15'816.4
2018-Jun-18 14:00N 28°24' W 016°07'7 3.3
2018-Jun-18 11:46N 28°19' W 016°01'726.7
2018-Jun-18 11:30N 28°23' W 016°07'917.0
2018-Jun-18 11:00N 28°28' W 016°15'1 1.8
2018-Jun-18 10:30N 28°29' W 016°14'16 6.4
2018-Jun-18 07:59N 28°18' W 015°60'1326.9
2018-Jun-18 07:30N 28°27' W 016°11'4 7.0
2018-Jun-18 06:59N 28°28' W 016°15'1 1.8
2018-Jun-18 06:30N 28°29' W 016°14'16 1.5
2018-Jun-17 19:55N 28°18' W 016°01'1126.3
2018-Jun-17 19:30N 28°25' W 016°09'610.9
2018-Jun-17 19:00N 28°28' W 016°15'0 0.0
2018-Jun-17 18:30N 28°28' W 016°15'0 0.0
2018-Jun-17 18:00N 28°28' W 016°15'1 1.7
2018-Jun-17 17:30N 28°29' W 016°14'1 2.2
2018-Jun-17 17:00N 28°28' W 016°15'0 0.0
2018-Jun-17 16:30N 28°28' W 016°15'0 0.0
2018-Jun-17 16:00N 28°28' W 016°15'0 0.0
2018-Jun-17 15:31N 28°28' W 016°15'0 0.0
2018-Jun-17 15:00N 28°28' W 016°15'0 0.0
2018-Jun-17 14:30N 28°28' W 016°15'0 0.0
2018-Jun-17 14:01N 28°28' W 016°15'0 0.0
2018-Jun-17 13:30N 28°28' W 016°15'0 0.0
2018-Jun-17 13:00N 28°28' W 016°15'0 0.0
2018-Jun-17 12:31N 28°28' W 016°15'0 0.0
2018-Jun-17 12:00N 28°28' W 016°15'0 0.0
2018-Jun-17 11:30N 28°28' W 016°15'0 0.0
2018-Jun-17 11:01N 28°28' W 016°15'0 0.0
2018-Jun-17 10:31N 28°28' W 016°15'0 0.0
2018-Jun-17 10:00N 28°28' W 016°15'0 0.0
2018-Jun-17 09:30N 28°28' W 016°15'0 0.0
2018-Jun-17 08:59N 28°28' W 016°15'0 0.0
2018-Jun-17 08:31N 28°28' W 016°15'0 0.0
2018-Jun-17 08:01N 28°28' W 016°15'0 0.0
2018-Jun-17 07:31N 28°28' W 016°15'0 0.0
2018-Jun-17 07:00N 28°28' W 016°15'0 0.0
2018-Jun-17 06:30N 28°28' W 016°15'0 0.0
2018-Jun-17 06:00N 28°28' W 016°15'0 0.0
2018-Jun-17 05:30N 28°28' W 016°15'0 0.0
2018-Jun-17 05:00N 28°28' W 016°15'0 0.0
2018-Jun-17 04:25N 28°28' W 016°15'0 0.0
2018-Jun-17 04:01N 28°28' W 016°15'0 0.0
2018-Jun-17 03:30N 28°28' W 016°15'0 0.0
2018-Jun-17 03:01N 28°28' W 016°15'0 0.0
2018-Jun-17 02:30N 28°28' W 016°15'0 0.0
2018-Jun-17 02:01N 28°28' W 016°15'0 0.0
2018-Jun-17 01:30N 28°28' W 016°15'0 0.0
2018-Jun-17 01:00N 28°28' W 016°15'0 0.0
2018-Jun-17 00:31N 28°28' W 016°15'0 0.0
2018-Jun-17 00:00N 28°28' W 016°15'0 0.0
2018-Jun-16 23:30N 28°28' W 016°15'0 0.0
2018-Jun-16 23:01N 28°28' W 016°15'0 0.0
2018-Jun-16 22:30N 28°28' W 016°15'0 0.0
2018-Jun-16 22:01N 28°28' W 016°15'0 0.0
2018-Jun-16 21:30N 28°28' W 016°15'0 0.0
2018-Jun-16 21:00N 28°28' W 016°15'0 0.0
2018-Jun-16 20:30N 28°28' W 016°15'0 0.0
2018-Jun-16 20:00N 28°28' W 016°15'0 0.0
2018-Jun-16 19:30N 28°28' W 016°15'0 0.0
2018-Jun-16 19:00N 28°28' W 016°15'0 0.0
2018-Jun-16 18:30N 28°28' W 016°15'0 0.0
2018-Jun-16 18:00N 28°28' W 016°15'0 0.0
2018-Jun-16 17:30N 28°28' W 016°15'0 0.0
2018-Jun-16 17:00N 28°28' W 016°15'0 0.0
2018-Jun-16 16:30N 28°28' W 016°15'0 0.0
2018-Jun-16 16:00N 28°28' W 016°15'0 0.0
2018-Jun-16 15:29N 28°28' W 016°15'0 0.0
2018-Jun-16 15:01N 28°28' W 016°15'0 0.0
2018-Jun-16 14:31N 28°28' W 016°15'0 0.0
2018-Jun-16 14:01N 28°28' W 016°15'0 0.0
2018-Jun-16 13:30N 28°28' W 016°15'0 0.0
2018-Jun-16 13:00N 28°28' W 016°15'0 0.0
2018-Jun-16 12:29N 28°28' W 016°15'0 0.0
2018-Jun-16 12:00N 28°28' W 016°15'0 0.0
2018-Jun-16 11:31N 28°28' W 016°15'0 0.0
2018-Jun-16 10:59N 28°28' W 016°15'0 0.0
2018-Jun-16 10:30N 28°28' W 016°15'0 0.0
2018-Jun-16 10:00N 28°28' W 016°15'0 0.0
2018-Jun-16 09:31N 28°28' W 016°15'0 0.0
2018-Jun-16 09:00N 28°28' W 016°15'0 0.0
2018-Jun-16 08:30N 28°28' W 016°15'0 0.0
2018-Jun-16 08:00N 28°28' W 016°15'0 0.0
2018-Jun-16 07:31N 28°28' W 016°15'0 0.0
2018-Jun-16 07:00N 28°28' W 016°15'0 0.0
2018-Jun-16 06:29N 28°28' W 016°15'0 0.0
2018-Jun-16 06:01N 28°28' W 016°15'0 0.0
2018-Jun-16 05:31N 28°28' W 016°15'0 0.0
2018-Jun-16 05:01N 28°28' W 016°15'0 0.0
2018-Jun-16 04:31N 28°28' W 016°15'0 0.0
2018-Jun-16 04:01N 28°28' W 016°15'0 0.0
2018-Jun-16 03:30N 28°28' W 016°15'0 0.0
2018-Jun-16 02:59N 28°28' W 016°15'0 0.0
2018-Jun-16 02:30N 28°28' W 016°15'0 0.0
2018-Jun-16 02:01N 28°28' W 016°15'0 0.0
2018-Jun-16 01:31N 28°28' W 016°15'0 0.0
2018-Jun-16 01:01N 28°28' W 016°15'0 0.0
2018-Jun-16 00:31N 28°28' W 016°15'0 0.0
2018-Jun-16 00:00N 28°28' W 016°15'0 0.0
2018-Jun-15 23:30N 28°28' W 016°15'0 0.0
2018-Jun-15 23:01N 28°28' W 016°15'0 0.0
2018-Jun-15 22:30N 28°28' W 016°15'0 0.0
2018-Jun-15 22:01N 28°28' W 016°15'0 0.0
2018-Jun-15 21:31N 28°28' W 016°15'0 0.0
2018-Jun-15 21:00N 28°28' W 016°15'0 0.0
2018-Jun-15 20:30N 28°28' W 016°15'0 0.0
2018-Jun-15 20:00N 28°28' W 016°15'0 0.0
2018-Jun-15 19:30N 28°28' W 016°15'0 0.0
2018-Jun-15 19:00N 28°28' W 016°15'0 0.0
2018-Jun-15 18:31N 28°28' W 016°15'0 0.0
2018-Jun-15 17:59N 28°28' W 016°15'0 0.0
2018-Jun-15 17:31N 28°28' W 016°15'0 0.0
2018-Jun-15 17:01N 28°28' W 016°15'0 0.0
2018-Jun-15 16:30N 28°28' W 016°15'0 0.0
2018-Jun-15 16:01N 28°28' W 016°15'0 0.0
2018-Jun-15 15:31N 28°28' W 016°15'0 0.0
2018-Jun-15 15:01N 28°28' W 016°15'0 0.0
2018-Jun-15 14:30N 28°28' W 016°15'0 0.0
2018-Jun-15 14:00N 28°28' W 016°15'0 0.0
2018-Jun-15 13:30N 28°28' W 016°15'0 0.0
2018-Jun-15 13:01N 28°28' W 016°15'0 0.0
2018-Jun-15 12:29N 28°28' W 016°15'0 0.0
2018-Jun-15 12:00N 28°28' W 016°15'0 0.0
2018-Jun-15 11:31N 28°28' W 016°15'0 0.0
2018-Jun-15 11:00N 28°28' W 016°15'0 0.0
2018-Jun-15 10:30N 28°28' W 016°15'0 0.0
2018-Jun-15 10:00N 28°28' W 016°15'0 0.0
2018-Jun-15 09:30N 28°28' W 016°15'0 0.0
2018-Jun-15 09:01N 28°28' W 016°15'0 0.0
2018-Jun-15 08:30N 28°28' W 016°15'0 0.0
2018-Jun-15 08:01N 28°28' W 016°15'0 0.0
2018-Jun-15 07:29N 28°28' W 016°15'0 0.0
2018-Jun-15 07:00N 28°28' W 016°15'0 0.0
2018-Jun-15 06:29N 28°28' W 016°15'0 0.0
2018-Jun-15 06:00N 28°28' W 016°15'0 0.0
2018-Jun-15 05:31N 28°28' W 016°15'0 0.0
2018-Jun-15 05:00N 28°28' W 016°15'0 0.0
2018-Jun-15 04:31N 28°28' W 016°15'0 0.0
2018-Jun-15 04:00N 28°28' W 016°15'0 0.0
2018-Jun-15 03:31N 28°28' W 016°15'0 0.0
2018-Jun-15 03:00N 28°28' W 016°15'0 0.0
2018-Jun-15 02:31N 28°28' W 016°15'0 0.0
2018-Jun-15 02:01N 28°28' W 016°15'0 0.0
2018-Jun-15 01:30N 28°28' W 016°15'0 0.0
2018-Jun-15 01:00N 28°28' W 016°15'0 0.0
2018-Jun-15 00:31N 28°28' W 016°15'0 0.0
2018-Jun-14 23:57N 28°28' W 016°15'0 0.0
2018-Jun-14 23:31N 28°28' W 016°15'0 0.0
2018-Jun-14 23:00N 28°28' W 016°15'0 0.0
2018-Jun-14 22:31N 28°28' W 016°15'0 0.0
2018-Jun-14 22:00N 28°28' W 016°15'0 0.0
2018-Jun-14 21:31N 28°28' W 016°15'0 0.0
2018-Jun-14 21:00N 28°28' W 016°15'0 0.0
2018-Jun-14 20:30N 28°28' W 016°15'0 0.0
2018-Jun-14 20:00N 28°28' W 016°15'0 0.0
2018-Jun-14 19:31N 28°28' W 016°15'0 0.0
2018-Jun-14 19:01N 28°28' W 016°15'0 0.0
2018-Jun-14 18:31N 28°28' W 016°15'0 0.0
2018-Jun-14 18:00N 28°28' W 016°15'0 0.0
2018-Jun-14 17:31N 28°28' W 016°15'0 0.0
2018-Jun-14 17:00N 28°28' W 016°15'0 0.0
2018-Jun-14 16:30N 28°28' W 016°15'0 0.0
2018-Jun-14 16:00N 28°28' W 016°15'0 0.0
2018-Jun-14 15:31N 28°28' W 016°15'0 0.0
2018-Jun-14 15:00N 28°28' W 016°15'0 0.0
2018-Jun-14 14:30N 28°28' W 016°15'0 0.0
2018-Jun-14 14:00N 28°28' W 016°15'0 0.0
2018-Jun-14 13:31N 28°28' W 016°15'0 0.0
2018-Jun-14 13:00N 28°28' W 016°15'0 0.0
2018-Jun-14 12:30N 28°28' W 016°15'0 0.0
2018-Jun-14 12:00N 28°28' W 016°15'0 0.0
2018-Jun-14 11:30N 28°28' W 016°15'0 0.0
2018-Jun-14 11:00N 28°28' W 016°15'0 0.0
2018-Jun-14 10:30N 28°28' W 016°15'0 0.0
2018-Jun-14 10:00N 28°28' W 016°15'0 0.0
2018-Jun-14 09:31N 28°28' W 016°15'0 0.0
2018-Jun-14 09:01N 28°28' W 016°15'0 0.0
2018-Jun-14 08:30N 28°28' W 016°15'0 0.0
2018-Jun-14 08:01N 28°28' W 016°15'0 0.0
2018-Jun-14 07:30N 28°28' W 016°15'0 0.0
2018-Jun-14 07:00N 28°28' W 016°15'0 0.0
2018-Jun-14 06:31N 28°28' W 016°15'0 0.0
2018-Jun-14 06:00N 28°28' W 016°15'0 0.0
2018-Jun-14 05:30N 28°28' W 016°15'0 0.0
2018-Jun-14 05:00N 28°28' W 016°15'0 0.0
2018-Jun-14 04:31N 28°28' W 016°15'0 0.0
2018-Jun-14 04:00N 28°28' W 016°15'0 0.0
2018-Jun-14 03:30N 28°28' W 016°15'0 0.0
2018-Jun-14 03:00N 28°28' W 016°15'0 0.0
2018-Jun-14 02:31N 28°28' W 016°15'0 0.0
2018-Jun-14 02:00N 28°28' W 016°15'0 0.0
2018-Jun-14 01:31N 28°28' W 016°15'0 0.0
2018-Jun-14 01:00N 28°28' W 016°15'0 0.0
2018-Jun-14 00:29N 28°28' W 016°15'0 0.0
2018-Jun-14 00:00N 28°28' W 016°15'0 0.0
2018-Jun-13 23:31N 28°28' W 016°15'0 0.0
2018-Jun-13 23:01N 28°28' W 016°15'0 0.0
2018-Jun-13 22:30N 28°28' W 016°15'0 0.0
2018-Jun-13 21:59N 28°28' W 016°15'0 0.0
2018-Jun-13 21:30N 28°28' W 016°15'0 0.0
2018-Jun-13 21:00N 28°28' W 016°15'0 0.0
2018-Jun-13 20:29N 28°28' W 016°15'0 0.0
2018-Jun-13 19:59N 28°28' W 016°15'0 0.0
2018-Jun-13 19:30N 28°28' W 016°15'0 0.0
2018-Jun-13 19:01N 28°28' W 016°15'0 0.0
2018-Jun-13 18:30N 28°28' W 016°15'0 0.0
2018-Jun-13 18:00N 28°28' W 016°15'0 0.0
2018-Jun-13 17:30N 28°28' W 016°15'0 0.0
2018-Jun-13 17:01N 28°28' W 016°15'0 0.0
2018-Jun-13 16:31N 28°28' W 016°15'0 0.0
2018-Jun-13 15:59N 28°28' W 016°15'0 0.0
2018-Jun-13 15:30N 28°28' W 016°15'0 0.0
2018-Jun-13 14:59N 28°28' W 016°15'0 0.0
2018-Jun-13 14:30N 28°28' W 016°15'0 0.0
2018-Jun-13 14:00N 28°28' W 016°15'0 0.0
2018-Jun-13 13:30N 28°28' W 016°15'0 0.0
2018-Jun-13 13:01N 28°28' W 016°15'0 0.0
2018-Jun-13 12:30N 28°28' W 016°15'0 0.0
2018-Jun-13 12:01N 28°28' W 016°15'0 0.0
2018-Jun-13 11:31N 28°28' W 016°15'0 0.0
2018-Jun-13 11:01N 28°28' W 016°15'0 0.0
2018-Jun-13 10:27N 28°28' W 016°15'0 0.0
2018-Jun-13 10:01N 28°28' W 016°15'0 0.0
2018-Jun-13 09:30N 28°28' W 016°15'0 0.0
2018-Jun-13 09:00N 28°28' W 016°15'0 0.0
2018-Jun-13 08:28N 28°28' W 016°15'0 0.0
2018-Jun-13 08:00N 28°28' W 016°15'0 0.0
2018-Jun-13 07:31N 28°28' W 016°15'0 0.0
2018-Jun-13 06:59N 28°28' W 016°15'0 0.0
2018-Jun-13 06:30N 28°28' W 016°15'0 0.0
2018-Jun-13 06:00N 28°28' W 016°15'0 0.0
2018-Jun-13 05:30N 28°28' W 016°15'0 0.0
2018-Jun-13 05:01N 28°28' W 016°15'0 0.0
2018-Jun-13 04:31N 28°28' W 016°15'0 0.0
2018-Jun-13 04:01N 28°28' W 016°15'0 0.0
2018-Jun-13 03:30N 28°28' W 016°15'0 0.0
2018-Jun-13 03:00N 28°28' W 016°15'0 0.0
2018-Jun-13 02:31N 28°28' W 016°15'0 0.0
2018-Jun-13 02:01N 28°28' W 016°15'0 0.0
2018-Jun-13 01:31N 28°28' W 016°15'0 0.0
2018-Jun-13 01:00N 28°28' W 016°15'0 0.0
2018-Jun-13 00:31N 28°28' W 016°15'0 0.0
2018-Jun-13 00:00N 28°28' W 016°15'0 0.0
2018-Jun-12 23:31N 28°28' W 016°15'0 0.0
2018-Jun-12 23:00N 28°28' W 016°15'0 0.0
2018-Jun-12 22:30N 28°28' W 016°15'0 0.0
2018-Jun-12 22:00N 28°28' W 016°15'0 0.0
2018-Jun-12 21:30N 28°28' W 016°15'0 0.0
2018-Jun-12 21:01N 28°28' W 016°15'0 0.0
2018-Jun-12 20:31N 28°28' W 016°15'0 0.0
2018-Jun-12 20:00N 28°28' W 016°15'0 0.0
2018-Jun-12 19:31N 28°28' W 016°15'0 0.0
2018-Jun-12 19:00N 28°28' W 016°15'0 0.0
2018-Jun-12 18:30N 28°28' W 016°15'0 0.0
2018-Jun-12 18:00N 28°28' W 016°15'0 0.0
2018-Jun-12 17:29N 28°28' W 016°15'0 0.0
2018-Jun-12 16:58N 28°28' W 016°15'0 0.0
2018-Jun-12 16:31N 28°28' W 016°15'0 0.0
2018-Jun-12 16:01N 28°28' W 016°15'0 0.0
2018-Jun-12 15:31N 28°28' W 016°15'0 0.0
2018-Jun-12 14:59N 28°28' W 016°15'0 0.0
2018-Jun-12 14:30N 28°28' W 016°15'0 0.0
2018-Jun-12 14:01N 28°28' W 016°15'0 0.0
2018-Jun-12 13:31N 28°28' W 016°15'0 0.0
2018-Jun-12 13:00N 28°28' W 016°15'0 0.0
2018-Jun-12 12:30N 28°28' W 016°15'0 0.0
2018-Jun-12 12:01N 28°28' W 016°15'0 0.0
2018-Jun-12 11:31N 28°28' W 016°15'0 0.0
2018-Jun-12 11:00N 28°28' W 016°15'0 0.0
2018-Jun-12 10:30N 28°28' W 016°15'0 0.0
2018-Jun-12 10:01N 28°28' W 016°15'0 0.0
2018-Jun-12 09:30N 28°28' W 016°15'0 0.0
2018-Jun-12 09:00N 28°28' W 016°15'0 0.0
2018-Jun-12 08:31N 28°28' W 016°15'0 0.0
2018-Jun-12 07:59N 28°28' W 016°15'0 0.0
2018-Jun-12 07:30N 28°28' W 016°15'0 0.0
2018-Jun-12 07:01N 28°28' W 016°15'0 0.0
2018-Jun-12 06:30N 28°28' W 016°15'0 0.0
2018-Jun-12 06:01N 28°28' W 016°15'0 0.0
2018-Jun-12 05:31N 28°28' W 016°15'0 0.0
2018-Jun-12 05:01N 28°28' W 016°15'0 0.0
2018-Jun-12 04:31N 28°28' W 016°15'0 0.0
2018-Jun-12 04:01N 28°28' W 016°15'0 0.0
2018-Jun-12 03:30N 28°28' W 016°15'0 0.0
2018-Jun-12 03:00N 28°28' W 016°15'0 0.0
2018-Jun-12 02:30N 28°28' W 016°15'0 0.0
2018-Jun-12 02:00N 28°28' W 016°15'0 0.0
2018-Jun-12 01:30N 28°28' W 016°15'  
Track history (hours):
 
Tides and Currents Weather Stations Pressure Air Temp Water Temp Dewpoint Dewpoint Depression Visibility Wind Speed Wind Dir Waves Ship Positions

Bentago Express

Last reported at 2018-Jun-22 01:03 UTC. Time now 2018-Jun-22 01:55 UTC.
Position N 28°03' W 014°22'.

Length 96 m; draft 3.8 m.

Type: High speed craft. MMSI: 224689000.

Date/timePositionNaut miles runAvg speedWind from/ knotsBaromVisibWave heightAir tempDewpointWater temp
2018-Jun-22 01:03N 28°03' W 014°22'0 0.0
2018-Jun-22 01:00N 28°03' W 014°22'0 0.0
2018-Jun-22 00:23N 28°03' W 014°22'0 0.0
2018-Jun-21 23:52N 28°03' W 014°22'0 0.0
2018-Jun-21 23:19N 28°03' W 014°22'0 0.0
2018-Jun-21 22:59N 28°03' W 014°22'0 0.0
2018-Jun-21 22:30N 28°03' W 014°22'0 0.0
2018-Jun-21 22:01N 28°03' W 014°22'1217.5
2018-Jun-21 21:20N 28°03' W 014°35'1029.2
2018-Jun-21 21:00N 28°04' W 014°46'1428.8
2018-Jun-21 20:30N 28°04' W 015°02'1428.9
2018-Jun-21 20:00N 28°05' W 015°18'713.6
2018-Jun-21 19:30N 28°09' W 015°25'0 0.0
2018-Jun-21 19:00N 28°09' W 015°25'0 0.0
2018-Jun-21 18:30N 28°09' W 015°25'611.3
2018-Jun-21 18:01N 28°06' W 015°20'1733.7
2018-Jun-21 17:31N 28°04' W 015°01'1733.8
2018-Jun-21 17:00N 28°03' W 014°42'1826.0
2018-Jun-21 16:20N 28°03' W 014°22'0 0.0
2018-Jun-21 15:48N 28°03' W 014°22'1027.9
2018-Jun-21 15:26N 28°02' W 014°33'1535.0
2018-Jun-21 15:00N 28°04' W 014°50'1835.1
2018-Jun-21 14:30N 28°06' W 015°10'1427.4
2018-Jun-21 14:00N 28°08' W 015°25'0 0.9
2018-Jun-21 13:31N 28°09' W 015°25'2 3.6
2018-Jun-21 13:00N 28°07' W 015°24'1735.0
2018-Jun-21 12:30N 28°05' W 015°05'1835.6
2018-Jun-21 12:00N 28°03' W 014°45'1511.8
2018-Jun-21 10:45N 28°02' W 014°28'833.6
2018-Jun-21 10:30N 28°03' W 014°37'1734.0
2018-Jun-21 10:00N 28°04' W 014°56'1734.1
2018-Jun-21 09:30N 28°06' W 015°15'918.6
2018-Jun-21 09:00N 28°09' W 015°25'0 0.0
2018-Jun-21 08:30N 28°09' W 015°25'1 2.0
2018-Jun-21 08:00N 28°08' W 015°25'1427.5
2018-Jun-21 07:31N 28°05' W 015°10'1632.5
2018-Jun-21 07:00N 28°04' W 014°52'26 5.0
2018-Jun-21 01:43N 28°03' W 014°22'0 0.0
2018-Jun-21 00:38N 28°03' W 014°22'0 0.0
2018-Jun-21 00:26N 28°03' W 014°22'0 0.0
2018-Jun-21 00:01N 28°03' W 014°22'0 0.0
2018-Jun-20 23:29N 28°03' W 014°22'0 0.0
2018-Jun-20 22:54N 28°03' W 014°22'0 0.0
2018-Jun-20 22:29N 28°03' W 014°22'0 0.0
2018-Jun-20 21:55N 28°03' W 014°22'611.5
2018-Jun-20 21:24N 28°02' W 014°28'1229.4
2018-Jun-20 21:00N 28°02' W 014°42'1429.1
2018-Jun-20 20:30N 28°04' W 014°58'1428.8
2018-Jun-20 20:00N 28°06' W 015°14'1020.8
2018-Jun-20 19:30N 28°09' W 015°25'0 0.2
2018-Jun-20 19:00N 28°09' W 015°25'0 0.0
2018-Jun-20 18:30N 28°09' W 015°25'815.0
2018-Jun-20 18:00N 28°06' W 015°17'1733.8
2018-Jun-20 17:30N 28°04' W 014°58'1733.8
2018-Jun-20 16:59N 28°02' W 014°39'1529.0
2018-Jun-20 16:28N 28°03' W 014°22'0 0.0
2018-Jun-20 16:00N 28°03' W 014°22'0 0.0
2018-Jun-20 15:30N 28°03' W 014°22'0 0.0
2018-Jun-20 14:49N 28°03' W 014°22'0 0.0
2018-Jun-20 14:26N 28°03' W 014°22'0 0.0
2018-Jun-20 13:58N 28°03' W 014°22'0 0.0
2018-Jun-20 13:31N 28°03' W 014°22'0 0.5
2018-Jun-20 12:58N 28°03' W 014°22'1226.4
2018-Jun-20 12:30N 28°02' W 014°36'1632.5
2018-Jun-20 12:00N 28°04' W 014°54'1632.6
2018-Jun-20 11:31N 28°06' W 015°12'1223.6
2018-Jun-20 11:00N 28°09' W 015°25'0 0.3
2018-Jun-20 10:31N 28°09' W 015°25'0 0.3
2018-Jun-20 10:00N 28°09' W 015°25'5 9.5
2018-Jun-20 09:31N 28°12' W 015°29'2914.7
2018-Jun-20 07:32N 28°19' W 016°01'234.7
2018-Jun-20 07:29N 28°20' W 016°03'1328.5
2018-Jun-20 07:00N 28°28' W 016°15'0 0.1
2018-Jun-20 06:30N 28°28' W 016°15'5 9.9
2018-Jun-20 06:00N 28°26' W 016°10'5 0.5
2018-Jun-19 19:30N 28°22' W 016°06'1020.7
2018-Jun-19 19:00N 28°28' W 016°15'0 0.0
2018-Jun-19 18:30N 28°28' W 016°15'1 1.2
2018-Jun-19 18:01N 28°29' W 016°14'7 2.5
2018-Jun-19 15:13N 28°25' W 016°08'729.5
2018-Jun-19 14:59N 28°29' W 016°14'1 1.2
2018-Jun-19 14:30N 28°28' W 016°15'3 6.9
2018-Jun-19 14:00N 28°26' W 016°12'8 3.3
2018-Jun-19 11:32N 28°21' W 016°04'027.0
2018-Jun-19 11:30N 28°22' W 016°05'1122.1
2018-Jun-19 11:00N 28°28' W 016°15'0 0.2
2018-Jun-19 10:31N 28°28' W 016°15'1 1.6
2018-Jun-19 10:00N 28°29' W 016°14'14 5.5
2018-Jun-19 07:30N 28°20' W 016°02'1428.5
2018-Jun-19 07:01N 28°28' W 016°15'0 0.4
2018-Jun-19 06:31N 28°28' W 016°15'15 1.4
2018-Jun-18 19:43N 28°18' W 016°02'626.2
2018-Jun-18 19:31N 28°22' W 016°06'1019.3
2018-Jun-18 19:00N 28°28' W 016°15'0 0.0
2018-Jun-18 18:30N 28°28' W 016°15'815.0
2018-Jun-18 18:00N 28°24' W 016°08'8 3.5
2018-Jun-18 15:38N 28°18' W 016°01'427.0
2018-Jun-18 15:29N 28°21' W 016°04'1224.4
2018-Jun-18 15:00N 28°29' W 016°14'1 1.0
2018-Jun-18 14:29N 28°28' W 016°15'816.4
2018-Jun-18 14:00N 28°24' W 016°07'7 3.3
2018-Jun-18 11:46N 28°19' W 016°01'726.7
2018-Jun-18 11:30N 28°23' W 016°07'917.0
2018-Jun-18 11:00N 28°28' W 016°15'1 1.8
2018-Jun-18 10:30N 28°29' W 016°14'16 6.4
2018-Jun-18 07:59N 28°18' W 015°60'1326.9
2018-Jun-18 07:30N 28°27' W 016°11'4 7.0
2018-Jun-18 06:59N 28°28' W 016°15'1 1.8
2018-Jun-18 06:30N 28°29' W 016°14'16 1.5
2018-Jun-17 19:55N 28°18' W 016°01'1126.3
2018-Jun-17 19:30N 28°25' W 016°09'610.9
2018-Jun-17 19:00N 28°28' W 016°15'0 0.0
2018-Jun-17 18:30N 28°28' W 016°15'0 0.0
2018-Jun-17 18:00N 28°28' W 016°15'1 1.7
2018-Jun-17 17:30N 28°29' W 016°14'1 2.2
2018-Jun-17 17:00N 28°28' W 016°15'0 0.0
2018-Jun-17 16:30N 28°28' W 016°15'0 0.0
2018-Jun-17 16:00N 28°28' W 016°15'0 0.0
2018-Jun-17 15:31N 28°28' W 016°15'0 0.0
2018-Jun-17 15:00N 28°28' W 016°15'0 0.0
2018-Jun-17 14:30N 28°28' W 016°15'0 0.0
2018-Jun-17 14:01N 28°28' W 016°15'0 0.0
2018-Jun-17 13:30N 28°28' W 016°15'0 0.0
2018-Jun-17 13:00N 28°28' W 016°15'0 0.0
2018-Jun-17 12:31N 28°28' W 016°15'0 0.0
2018-Jun-17 12:00N 28°28' W 016°15'0 0.0
2018-Jun-17 11:30N 28°28' W 016°15'0 0.0
2018-Jun-17 11:01N 28°28' W 016°15'0 0.0
2018-Jun-17 10:31N 28°28' W 016°15'0 0.0
2018-Jun-17 10:00N 28°28' W 016°15'0 0.0
2018-Jun-17 09:30N 28°28' W 016°15'0 0.0
2018-Jun-17 08:59N 28°28' W 016°15'0 0.0
2018-Jun-17 08:31N 28°28' W 016°15'0 0.0
2018-Jun-17 08:01N 28°28' W 016°15'0 0.0
2018-Jun-17 07:31N 28°28' W 016°15'0 0.0
2018-Jun-17 07:00N 28°28' W 016°15'0 0.0
2018-Jun-17 06:30N 28°28' W 016°15'0 0.0
2018-Jun-17 06:00N 28°28' W 016°15'0 0.0
2018-Jun-17 05:30N 28°28' W 016°15'0 0.0
2018-Jun-17 05:00N 28°28' W 016°15'0 0.0
2018-Jun-17 04:25N 28°28' W 016°15'0 0.0
2018-Jun-17 04:01N 28°28' W 016°15'0 0.0
2018-Jun-17 03:30N 28°28' W 016°15'0 0.0
2018-Jun-17 03:01N 28°28' W 016°15'0 0.0
2018-Jun-17 02:30N 28°28' W 016°15'0 0.0
2018-Jun-17 02:01N 28°28' W 016°15'0 0.0
2018-Jun-17 01:30N 28°28' W 016°15'0 0.0
2018-Jun-17 01:00N 28°28' W 016°15'0 0.0
2018-Jun-17 00:31N 28°28' W 016°15'0 0.0
2018-Jun-17 00:00N 28°28' W 016°15'0 0.0
2018-Jun-16 23:30N 28°28' W 016°15'0 0.0
2018-Jun-16 23:01N 28°28' W 016°15'0 0.0
2018-Jun-16 22:30N 28°28' W 016°15'0 0.0
2018-Jun-16 22:01N 28°28' W 016°15'0 0.0
2018-Jun-16 21:30N 28°28' W 016°15'0 0.0
2018-Jun-16 21:00N 28°28' W 016°15'0 0.0
2018-Jun-16 20:30N 28°28' W 016°15'0 0.0
2018-Jun-16 20:00N 28°28' W 016°15'0 0.0
2018-Jun-16 19:30N 28°28' W 016°15'0 0.0
2018-Jun-16 19:00N 28°28' W 016°15'0 0.0
2018-Jun-16 18:30N 28°28' W 016°15'0 0.0
2018-Jun-16 18:00N 28°28' W 016°15'0 0.0
2018-Jun-16 17:30N 28°28' W 016°15'0 0.0
2018-Jun-16 17:00N 28°28' W 016°15'0 0.0
2018-Jun-16 16:30N 28°28' W 016°15'0 0.0
2018-Jun-16 16:00N 28°28' W 016°15'0 0.0
2018-Jun-16 15:29N 28°28' W 016°15'0 0.0
2018-Jun-16 15:01N 28°28' W 016°15'0 0.0
2018-Jun-16 14:31N 28°28' W 016°15'0 0.0
2018-Jun-16 14:01N 28°28' W 016°15'0 0.0
2018-Jun-16 13:30N 28°28' W 016°15'0 0.0
2018-Jun-16 13:00N 28°28' W 016°15'0 0.0
2018-Jun-16 12:29N 28°28' W 016°15'0 0.0
2018-Jun-16 12:00N 28°28' W 016°15'0 0.0
2018-Jun-16 11:31N 28°28' W 016°15'0 0.0
2018-Jun-16 10:59N 28°28' W 016°15'0 0.0
2018-Jun-16 10:30N 28°28' W 016°15'0 0.0
2018-Jun-16 10:00N 28°28' W 016°15'0 0.0
2018-Jun-16 09:31N 28°28' W 016°15'0 0.0
2018-Jun-16 09:00N 28°28' W 016°15'0 0.0
2018-Jun-16 08:30N 28°28' W 016°15'0 0.0
2018-Jun-16 08:00N 28°28' W 016°15'0 0.0
2018-Jun-16 07:31N 28°28' W 016°15'0 0.0
2018-Jun-16 07:00N 28°28' W 016°15'0 0.0
2018-Jun-16 06:29N 28°28' W 016°15'0 0.0
2018-Jun-16 06:01N 28°28' W 016°15'0 0.0
2018-Jun-16 05:31N 28°28' W 016°15'0 0.0
2018-Jun-16 05:01N 28°28' W 016°15'0 0.0
2018-Jun-16 04:31N 28°28' W 016°15'0 0.0
2018-Jun-16 04:01N 28°28' W 016°15'0 0.0
2018-Jun-16 03:30N 28°28' W 016°15'0 0.0
2018-Jun-16 02:59N 28°28' W 016°15'0 0.0
2018-Jun-16 02:30N 28°28' W 016°15'0 0.0
2018-Jun-16 02:01N 28°28' W 016°15'0 0.0
2018-Jun-16 01:31N 28°28' W 016°15'0 0.0
2018-Jun-16 01:01N 28°28' W 016°15'0 0.0
2018-Jun-16 00:31N 28°28' W 016°15'0 0.0
2018-Jun-16 00:00N 28°28' W 016°15'0 0.0
2018-Jun-15 23:30N 28°28' W 016°15'0 0.0
2018-Jun-15 23:01N 28°28' W 016°15'0 0.0
2018-Jun-15 22:30N 28°28' W 016°15'0 0.0
2018-Jun-15 22:01N 28°28' W 016°15'0 0.0
2018-Jun-15 21:31N 28°28' W 016°15'0 0.0
2018-Jun-15 21:00N 28°28' W 016°15'0 0.0
2018-Jun-15 20:30N 28°28' W 016°15'0 0.0
2018-Jun-15 20:00N 28°28' W 016°15'0 0.0
2018-Jun-15 19:30N 28°28' W 016°15'0 0.0
2018-Jun-15 19:00N 28°28' W 016°15'0 0.0
2018-Jun-15 18:31N 28°28' W 016°15'0 0.0
2018-Jun-15 17:59N 28°28' W 016°15'0 0.0
2018-Jun-15 17:31N 28°28' W 016°15'0 0.0
2018-Jun-15 17:01N 28°28' W 016°15'0 0.0
2018-Jun-15 16:30N 28°28' W 016°15'0 0.0
2018-Jun-15 16:01N 28°28' W 016°15'0 0.0
2018-Jun-15 15:31N 28°28' W 016°15'0 0.0
2018-Jun-15 15:01N 28°28' W 016°15'0 0.0
2018-Jun-15 14:30N 28°28' W 016°15'0 0.0
2018-Jun-15 14:00N 28°28' W 016°15'0 0.0
2018-Jun-15 13:30N 28°28' W 016°15'0 0.0
2018-Jun-15 13:01N 28°28' W 016°15'0 0.0
2018-Jun-15 12:29N 28°28' W 016°15'0 0.0
2018-Jun-15 12:00N 28°28' W 016°15'0 0.0
2018-Jun-15 11:31N 28°28' W 016°15'0 0.0
2018-Jun-15 11:00N 28°28' W 016°15'0 0.0
2018-Jun-15 10:30N 28°28' W 016°15'0 0.0
2018-Jun-15 10:00N 28°28' W 016°15'0 0.0
2018-Jun-15 09:30N 28°28' W 016°15'0 0.0
2018-Jun-15 09:01N 28°28' W 016°15'0 0.0
2018-Jun-15 08:30N 28°28' W 016°15'0 0.0
2018-Jun-15 08:01N 28°28' W 016°15'0 0.0
2018-Jun-15 07:29N 28°28' W 016°15'0 0.0
2018-Jun-15 07:00N 28°28' W 016°15'0 0.0
2018-Jun-15 06:29N 28°28' W 016°15'0 0.0
2018-Jun-15 06:00N 28°28' W 016°15'0 0.0
2018-Jun-15 05:31N 28°28' W 016°15'0 0.0
2018-Jun-15 05:00N 28°28' W 016°15'0 0.0
2018-Jun-15 04:31N 28°28' W 016°15'0 0.0
2018-Jun-15 04:00N 28°28' W 016°15'0 0.0
2018-Jun-15 03:31N 28°28' W 016°15'0 0.0
2018-Jun-15 03:00N 28°28' W 016°15'0 0.0
2018-Jun-15 02:31N 28°28' W 016°15'0 0.0
2018-Jun-15 02:01N 28°28' W 016°15'0 0.0
2018-Jun-15 01:30N 28°28' W 016°15'0 0.0
2018-Jun-15 01:00N 28°28' W 016°15'0 0.0
2018-Jun-15 00:31N 28°28' W 016°15'0 0.0
2018-Jun-14 23:57N 28°28' W 016°15'0 0.0
2018-Jun-14 23:31N 28°28' W 016°15'0 0.0
2018-Jun-14 23:00N 28°28' W 016°15'0 0.0
2018-Jun-14 22:31N 28°28' W 016°15'0 0.0
2018-Jun-14 22:00N 28°28' W 016°15'0 0.0
2018-Jun-14 21:31N 28°28' W 016°15'0 0.0
2018-Jun-14 21:00N 28°28' W 016°15'0 0.0
2018-Jun-14 20:30N 28°28' W 016°15'0 0.0
2018-Jun-14 20:00N 28°28' W 016°15'0 0.0
2018-Jun-14 19:31N 28°28' W 016°15'0 0.0
2018-Jun-14 19:01N 28°28' W 016°15'0 0.0
2018-Jun-14 18:31N 28°28' W 016°15'0 0.0
2018-Jun-14 18:00N 28°28' W 016°15'0 0.0
2018-Jun-14 17:31N 28°28' W 016°15'0 0.0
2018-Jun-14 17:00N 28°28' W 016°15'0 0.0
2018-Jun-14 16:30N 28°28' W 016°15'0 0.0
2018-Jun-14 16:00N 28°28' W 016°15'0 0.0
2018-Jun-14 15:31N 28°28' W 016°15'0 0.0
2018-Jun-14 15:00N 28°28' W 016°15'0 0.0
2018-Jun-14 14:30N 28°28' W 016°15'0 0.0
2018-Jun-14 14:00N 28°28' W 016°15'0 0.0
2018-Jun-14 13:31N 28°28' W 016°15'0 0.0
2018-Jun-14 13:00N 28°28' W 016°15'0 0.0
2018-Jun-14 12:30N 28°28' W 016°15'0 0.0
2018-Jun-14 12:00N 28°28' W 016°15'0 0.0
2018-Jun-14 11:30N 28°28' W 016°15'0 0.0
2018-Jun-14 11:00N 28°28' W 016°15'0 0.0
2018-Jun-14 10:30N 28°28' W 016°15'0 0.0
2018-Jun-14 10:00N 28°28' W 016°15'0 0.0
2018-Jun-14 09:31N 28°28' W 016°15'0 0.0
2018-Jun-14 09:01N 28°28' W 016°15'0 0.0
2018-Jun-14 08:30N 28°28' W 016°15'0 0.0
2018-Jun-14 08:01N 28°28' W 016°15'0 0.0
2018-Jun-14 07:30N 28°28' W 016°15'0 0.0
2018-Jun-14 07:00N 28°28' W 016°15'0 0.0
2018-Jun-14 06:31N 28°28' W 016°15'0 0.0
2018-Jun-14 06:00N 28°28' W 016°15'0 0.0
2018-Jun-14 05:30N 28°28' W 016°15'0 0.0
2018-Jun-14 05:00N 28°28' W 016°15'0 0.0
2018-Jun-14 04:31N 28°28' W 016°15'0 0.0
2018-Jun-14 04:00N 28°28' W 016°15'0 0.0
2018-Jun-14 03:30N 28°28' W 016°15'0 0.0
2018-Jun-14 03:00N 28°28' W 016°15'0 0.0
2018-Jun-14 02:31N 28°28' W 016°15'0 0.0
2018-Jun-14 02:00N 28°28' W 016°15'0 0.0
2018-Jun-14 01:31N 28°28' W 016°15'0 0.0
2018-Jun-14 01:00N 28°28' W 016°15'0 0.0
2018-Jun-14 00:29N 28°28' W 016°15'0 0.0
2018-Jun-14 00:00N 28°28' W 016°15'0 0.0
2018-Jun-13 23:31N 28°28' W 016°15'0 0.0
2018-Jun-13 23:01N 28°28' W 016°15'0 0.0
2018-Jun-13 22:30N 28°28' W 016°15'0 0.0
2018-Jun-13 21:59N 28°28' W 016°15'0 0.0
2018-Jun-13 21:30N 28°28' W 016°15'0 0.0
2018-Jun-13 21:00N 28°28' W 016°15'0 0.0
2018-Jun-13 20:29N 28°28' W 016°15'0 0.0
2018-Jun-13 19:59N 28°28' W 016°15'0 0.0
2018-Jun-13 19:30N 28°28' W 016°15'0 0.0
2018-Jun-13 19:01N 28°28' W 016°15'0 0.0
2018-Jun-13 18:30N 28°28' W 016°15'0 0.0
2018-Jun-13 18:00N 28°28' W 016°15'0 0.0
2018-Jun-13 17:30N 28°28' W 016°15'0 0.0
2018-Jun-13 17:01N 28°28' W 016°15'0 0.0
2018-Jun-13 16:31N 28°28' W 016°15'0 0.0
2018-Jun-13 15:59N 28°28' W 016°15'0 0.0
2018-Jun-13 15:30N 28°28' W 016°15'0 0.0
2018-Jun-13 14:59N 28°28' W 016°15'0 0.0
2018-Jun-13 14:30N 28°28' W 016°15'0 0.0
2018-Jun-13 14:00N 28°28' W 016°15'0 0.0
2018-Jun-13 13:30N 28°28' W 016°15'0 0.0
2018-Jun-13 13:01N 28°28' W 016°15'0 0.0
2018-Jun-13 12:30N 28°28' W 016°15'0 0.0
2018-Jun-13 12:01N 28°28' W 016°15'0 0.0
2018-Jun-13 11:31N 28°28' W 016°15'0 0.0
2018-Jun-13 11:01N 28°28' W 016°15'0 0.0
2018-Jun-13 10:27N 28°28' W 016°15'0 0.0
2018-Jun-13 10:01N 28°28' W 016°15'0 0.0
2018-Jun-13 09:30N 28°28' W 016°15'0 0.0
2018-Jun-13 09:00N 28°28' W 016°15'0 0.0
2018-Jun-13 08:28N 28°28' W 016°15'0 0.0
2018-Jun-13 08:00N 28°28' W 016°15'0 0.0
2018-Jun-13 07:31N 28°28' W 016°15'0 0.0
2018-Jun-13 06:59N 28°28' W 016°15'0 0.0
2018-Jun-13 06:30N 28°28' W 016°15'0 0.0
2018-Jun-13 06:00N 28°28' W 016°15'0 0.0
2018-Jun-13 05:30N 28°28' W 016°15'0 0.0
2018-Jun-13 05:01N 28°28' W 016°15'0 0.0
2018-Jun-13 04:31N 28°28' W 016°15'0 0.0
2018-Jun-13 04:01N 28°28' W 016°15'0 0.0
2018-Jun-13 03:30N 28°28' W 016°15'0 0.0
2018-Jun-13 03:00N 28°28' W 016°15'0 0.0
2018-Jun-13 02:31N 28°28' W 016°15'0 0.0
2018-Jun-13 02:01N 28°28' W 016°15'0 0.0
2018-Jun-13 01:31N 28°28' W 016°15'0 0.0
2018-Jun-13 01:00N 28°28' W 016°15'0 0.0
2018-Jun-13 00:31N 28°28' W 016°15'0 0.0
2018-Jun-13 00:00N 28°28' W 016°15'0 0.0
2018-Jun-12 23:31N 28°28' W 016°15'0 0.0
2018-Jun-12 23:00N 28°28' W 016°15'0 0.0
2018-Jun-12 22:30N 28°28' W 016°15'0 0.0
2018-Jun-12 22:00N 28°28' W 016°15'0 0.0
2018-Jun-12 21:30N 28°28' W 016°15'0 0.0
2018-Jun-12 21:01N 28°28' W 016°15'0 0.0
2018-Jun-12 20:31N 28°28' W 016°15'0 0.0
2018-Jun-12 20:00N 28°28' W 016°15'0 0.0
2018-Jun-12 19:31N 28°28' W 016°15'0 0.0
2018-Jun-12 19:00N 28°28' W 016°15'0 0.0
2018-Jun-12 18:30N 28°28' W 016°15'0 0.0
2018-Jun-12 18:00N 28°28' W 016°15'0 0.0
2018-Jun-12 17:29N 28°28' W 016°15'0 0.0
2018-Jun-12 16:58N 28°28' W 016°15'0 0.0
2018-Jun-12 16:31N 28°28' W 016°15'0 0.0
2018-Jun-12 16:01N 28°28' W 016°15'0 0.0
2018-Jun-12 15:31N 28°28' W 016°15'0 0.0
2018-Jun-12 14:59N 28°28' W 016°15'0 0.0
2018-Jun-12 14:30N 28°28' W 016°15'0 0.0
2018-Jun-12 14:01N 28°28' W 016°15'0 0.0
2018-Jun-12 13:31N 28°28' W 016°15'0 0.0
2018-Jun-12 13:00N 28°28' W 016°15'0 0.0
2018-Jun-12 12:30N 28°28' W 016°15'0 0.0
2018-Jun-12 12:01N 28°28' W 016°15'0 0.0
2018-Jun-12 11:31N 28°28' W 016°15'0 0.0
2018-Jun-12 11:00N 28°28' W 016°15'0 0.0
2018-Jun-12 10:30N 28°28' W 016°15'0 0.0
2018-Jun-12 10:01N 28°28' W 016°15'0 0.0
2018-Jun-12 09:30N 28°28' W 016°15'0 0.0
2018-Jun-12 09:00N 28°28' W 016°15'0 0.0
2018-Jun-12 08:31N 28°28' W 016°15'0 0.0
2018-Jun-12 07:59N 28°28' W 016°15'0 0.0
2018-Jun-12 07:30N 28°28' W 016°15'0 0.0
2018-Jun-12 07:01N 28°28' W 016°15'0 0.0
2018-Jun-12 06:30N 28°28' W 016°15'0 0.0
2018-Jun-12 06:01N 28°28' W 016°15'0 0.0
2018-Jun-12 05:31N 28°28' W 016°15'0 0.0
2018-Jun-12 05:01N 28°28' W 016°15'0 0.0
2018-Jun-12 04:31N 28°28' W 016°15'0 0.0
2018-Jun-12 04:01N 28°28' W 016°15'0 0.0
2018-Jun-12 03:30N 28°28' W 016°15'0 0.0
2018-Jun-12 03:00N 28°28' W 016°15'0 0.0
2018-Jun-12 02:30N 28°28' W 016°15'0 0.0
2018-Jun-12 02:00N 28°28' W 016°15'0 0.0
2018-Jun-12 01:30N 28°28' W 016°15'  

Dump ship's entire track history